createdAt,value
2023-02-05T00:01:25.726Z,3.00
2023-02-05T00:03:52.361Z,3.00
2023-02-05T00:06:19.035Z,3.00
2023-02-05T00:08:45.662Z,3.10
2023-02-05T00:11:12.850Z,3.20
2023-02-05T00:13:41.085Z,3.50
2023-02-05T00:16:18.061Z,3.60
2023-02-05T00:18:45.394Z,3.20
2023-02-05T00:21:12.498Z,2.90
2023-02-05T00:23:39.252Z,3.00
2023-02-05T00:26:07.037Z,3.00
2023-02-05T00:28:35.218Z,3.10
2023-02-05T00:31:06.757Z,3.20
2023-02-05T00:33:33.427Z,3.20
2023-02-05T00:36:00.146Z,3.10
2023-02-05T00:38:26.770Z,3.10
2023-02-05T00:40:53.531Z,3.10
2023-02-05T00:43:20.204Z,3.20
2023-02-05T00:45:47.343Z,3.20
2023-02-05T00:48:14.011Z,3.20
2023-02-05T00:50:40.847Z,3.20
2023-02-05T00:53:07.700Z,3.50
2023-02-05T00:55:35.161Z,3.70
2023-02-05T00:58:02.039Z,3.40
2023-02-05T01:00:28.871Z,3.40
2023-02-05T01:02:55.999Z,3.30
2023-02-05T01:05:22.664Z,3.50
2023-02-05T01:07:49.327Z,3.70
2023-02-05T01:10:16.531Z,3.50
2023-02-05T01:12:43.587Z,3.40
2023-02-05T01:15:12.639Z,3.40
2023-02-05T01:17:39.468Z,3.50
2023-02-05T01:20:06.783Z,3.50
2023-02-05T01:22:33.566Z,3.40
2023-02-05T01:25:00.286Z,3.40
2023-02-05T01:27:27.049Z,3.50
2023-02-05T01:29:53.835Z,3.40
2023-02-05T01:32:20.552Z,3.30
2023-02-05T01:34:47.626Z,3.30
2023-02-05T01:37:14.528Z,3.50
2023-02-05T01:39:41.928Z,3.40
2023-02-05T01:42:22.753Z,3.50
2023-02-05T01:45:35.378Z,3.60
2023-02-05T01:48:04.638Z,3.40
2023-02-05T01:50:43.835Z,3.30
2023-02-05T01:53:15.563Z,3.20
2023-02-05T01:55:51.831Z,3.20
2023-02-05T01:58:18.531Z,3.20
2023-02-05T02:00:46.690Z,3.20
2023-02-05T02:03:14.970Z,3.20
2023-02-05T02:05:41.689Z,3.30
2023-02-05T02:08:12.006Z,3.40
2023-02-05T02:10:41.828Z,3.20
2023-02-05T02:13:09.218Z,3.10
2023-02-05T02:15:36.450Z,3.20
2023-02-05T02:18:23.997Z,3.30
2023-02-05T02:21:00.216Z,3.40
2023-02-05T02:23:39.011Z,3.30
2023-02-05T02:26:44.661Z,3.20
2023-02-05T02:29:19.522Z,3.10
2023-02-05T02:31:56.770Z,3.30
2023-02-05T02:34:37.283Z,3.30
2023-02-05T02:37:09.041Z,3.10
2023-02-05T02:40:00.293Z,2.90
2023-02-05T02:42:39.503Z,2.80
2023-02-05T02:45:09.755Z,2.70
2023-02-05T02:47:47.891Z,2.80
2023-02-05T02:50:21.901Z,3.10
2023-02-05T02:52:52.217Z,3.00
2023-02-05T02:55:21.036Z,2.90
2023-02-05T02:57:51.445Z,2.80
2023-02-05T03:00:24.838Z,3.00
2023-02-05T03:02:58.182Z,2.70
2023-02-05T03:05:27.849Z,2.70
2023-02-05T03:08:00.063Z,2.80
2023-02-05T03:10:42.620Z,2.70
2023-02-05T03:13:11.179Z,2.70
2023-02-05T03:15:44.433Z,2.80
2023-02-05T03:18:13.750Z,2.80
2023-02-05T03:20:57.513Z,2.90
2023-02-05T03:23:26.722Z,2.90
2023-02-05T03:25:53.718Z,2.90
2023-02-05T03:28:26.147Z,2.70
2023-02-05T03:31:02.151Z,2.60
2023-02-05T03:34:07.746Z,2.80
2023-02-05T03:36:37.834Z,2.80
2023-02-05T03:39:18.953Z,2.50
2023-02-05T03:42:17.951Z,2.40
2023-02-05T03:44:51.682Z,2.40
2023-02-05T03:47:25.939Z,2.30
2023-02-05T03:50:02.378Z,2.30
2023-02-05T03:52:35.641Z,2.20
2023-02-05T03:55:14.944Z,2.00
2023-02-05T03:57:52.046Z,2.00
2023-02-05T04:00:19.218Z,2.00
2023-02-05T04:02:47.701Z,1.90
2023-02-05T04:05:23.025Z,2.00
2023-02-05T04:07:52.372Z,2.00
2023-02-05T04:10:22.338Z,2.10
2023-02-05T04:12:50.423Z,2.10
2023-02-05T04:15:18.246Z,2.10
2023-02-05T04:17:48.082Z,2.10
2023-02-05T04:20:14.900Z,2.10
2023-02-05T04:22:42.160Z,2.10
2023-02-05T04:25:09.155Z,1.90
2023-02-05T04:27:35.834Z,1.90
2023-02-05T04:30:03.983Z,1.90
2023-02-05T04:32:33.650Z,1.90
2023-02-05T04:35:01.019Z,1.90
2023-02-05T04:37:27.730Z,1.90
2023-02-05T04:39:54.413Z,1.80
2023-02-05T04:42:21.054Z,1.70
2023-02-05T04:44:47.700Z,1.60
2023-02-05T04:47:14.529Z,1.70
2023-02-05T04:49:41.208Z,1.90
2023-02-05T04:52:08.487Z,1.90
2023-02-05T04:54:37.039Z,1.80
2023-02-05T04:57:03.835Z,1.70
2023-02-05T04:59:31.536Z,1.70
2023-02-05T05:01:59.147Z,1.70
2023-02-05T05:04:26.090Z,1.70
2023-02-05T05:06:52.703Z,1.80
2023-02-05T05:09:20.908Z,1.80
2023-02-05T05:11:47.596Z,1.70
2023-02-05T05:14:14.265Z,2.00
2023-02-05T05:16:40.900Z,2.10
2023-02-05T05:19:07.551Z,1.90
2023-02-05T05:21:34.287Z,1.90
2023-02-05T05:24:01.021Z,1.70
2023-02-05T05:26:28.124Z,1.60
2023-02-05T05:28:56.033Z,1.60
2023-02-05T05:31:23.881Z,1.60
2023-02-05T05:33:51.051Z,1.70
2023-02-05T05:36:18.197Z,1.70
2023-02-05T05:38:45.364Z,1.90
2023-02-05T05:41:38.738Z,2.00
2023-02-05T05:44:05.377Z,1.90
2023-02-05T05:46:32.286Z,1.90
2023-02-05T05:49:00.631Z,1.90
2023-02-05T05:51:28.775Z,1.80
2023-02-05T05:53:55.637Z,1.90
2023-02-05T05:56:22.541Z,1.90
2023-02-05T05:58:50.139Z,2.10
2023-02-05T06:01:19.050Z,2.20
2023-02-05T06:03:45.696Z,2.20
2023-02-05T06:06:13.283Z,2.20
2023-02-05T06:08:39.941Z,2.10
2023-02-05T06:11:06.762Z,2.00
2023-02-05T06:13:34.705Z,2.10
2023-02-05T06:16:01.588Z,2.10
2023-02-05T06:18:28.310Z,2.00
2023-02-05T06:20:55.295Z,2.00
2023-02-05T06:23:22.027Z,2.00
2023-02-05T06:25:48.907Z,2.00
2023-02-05T06:28:15.608Z,2.10
2023-02-05T06:30:42.369Z,2.20
2023-02-05T06:33:09.016Z,2.10
2023-02-05T06:35:36.026Z,2.30
2023-02-05T06:38:03.042Z,2.00
2023-02-05T06:40:29.814Z,2.10
2023-02-05T06:42:56.752Z,2.20
2023-02-05T06:45:23.536Z,2.30
2023-02-05T06:47:52.719Z,1.90
2023-02-05T06:50:20.112Z,1.90
2023-02-05T06:52:47.193Z,2.00
2023-02-05T06:55:14.015Z,1.90
2023-02-05T06:57:40.646Z,2.10
2023-02-05T07:00:08.604Z,2.10
2023-02-05T07:02:35.303Z,2.20
2023-02-05T07:05:02.174Z,2.20
2023-02-05T07:07:28.946Z,2.30
2023-02-05T07:09:55.612Z,2.30
2023-02-05T07:12:22.393Z,2.30
2023-02-05T07:14:49.092Z,2.40
2023-02-05T07:17:15.873Z,2.30
2023-02-05T07:19:42.752Z,2.20
2023-02-05T07:22:10.773Z,2.30
2023-02-05T07:24:37.441Z,2.30
2023-02-05T07:27:04.153Z,2.40
2023-02-05T07:29:30.875Z,2.40
2023-02-05T07:31:57.702Z,2.50
2023-02-05T07:34:24.698Z,2.60
2023-02-05T07:36:52.586Z,2.50
2023-02-05T07:39:19.819Z,2.40
2023-02-05T07:41:46.560Z,2.30
2023-02-05T07:44:21.759Z,2.30
2023-02-05T07:46:48.811Z,2.30
2023-02-05T07:49:15.549Z,2.10
2023-02-05T07:51:42.255Z,2.00
2023-02-05T07:54:10.188Z,2.20
2023-02-05T07:56:37.030Z,2.30
2023-02-05T07:59:03.796Z,2.10
2023-02-05T08:01:30.458Z,1.90
2023-02-05T08:03:57.201Z,2.10
2023-02-05T08:06:26.975Z,2.20
2023-02-05T08:08:53.668Z,2.10
2023-02-05T08:11:20.405Z,2.30
2023-02-05T08:13:47.151Z,2.30
2023-02-05T08:16:15.847Z,2.10
2023-02-05T08:18:46.753Z,2.10
2023-02-05T08:21:13.449Z,2.30
2023-02-05T08:23:40.094Z,2.30
2023-02-05T08:26:06.755Z,2.30
2023-02-05T08:28:33.493Z,2.30
2023-02-05T08:31:00.223Z,2.30
2023-02-05T08:33:26.948Z,2.30
2023-02-05T08:35:53.693Z,2.60
2023-02-05T08:38:20.369Z,2.30
2023-02-05T08:40:47.089Z,2.20
2023-02-05T08:43:13.815Z,2.20
2023-02-05T08:45:40.618Z,2.30
2023-02-05T08:48:07.391Z,2.30
2023-02-05T08:50:34.062Z,2.30
2023-02-05T08:53:01.266Z,2.30
2023-02-05T08:55:28.354Z,2.40
2023-02-05T08:57:55.392Z,2.40
2023-02-05T09:00:22.206Z,2.60
2023-02-05T09:02:49.087Z,2.60
2023-02-05T09:05:15.791Z,2.50
2023-02-05T09:07:42.570Z,2.60
2023-02-05T09:10:11.624Z,2.80
2023-02-05T09:12:38.386Z,2.80
2023-02-05T09:15:07.229Z,2.90
2023-02-05T09:17:33.928Z,2.90
2023-02-05T09:20:00.706Z,2.70
2023-02-05T09:22:27.374Z,2.70
2023-02-05T09:24:54.092Z,2.80
2023-02-05T09:27:21.132Z,2.90
2023-02-05T09:29:47.782Z,2.80
2023-02-05T09:32:14.473Z,2.90
2023-02-05T09:34:41.278Z,2.80
2023-02-05T09:37:07.926Z,3.00
2023-02-05T09:40:18.434Z,2.90
2023-02-05T09:42:21.456Z,3.00
2023-02-05T09:45:06.209Z,3.10
2023-02-05T09:47:46.046Z,3.20
2023-02-05T09:50:29.862Z,3.00
2023-02-05T09:53:18.213Z,2.90
2023-02-05T09:55:47.197Z,2.60
2023-02-05T09:58:26.450Z,2.50
2023-02-05T10:01:12.448Z,2.50
2023-02-05T10:03:42.255Z,2.90
2023-02-05T10:06:26.856Z,3.00
2023-02-05T10:09:19.674Z,2.90
2023-02-05T10:12:00.198Z,3.00
2023-02-05T10:14:54.100Z,3.00
2023-02-05T10:17:45.804Z,3.00
2023-02-05T10:20:45.888Z,3.30
2023-02-05T10:23:31.195Z,3.20
2023-02-05T10:26:09.138Z,3.10
2023-02-05T10:28:38.661Z,3.00
2023-02-05T10:31:15.604Z,3.00
2023-02-05T10:33:56.607Z,3.00
2023-02-05T10:36:25.585Z,3.00
2023-02-05T10:38:56.614Z,2.90
2023-02-05T10:41:32.110Z,2.90
2023-02-05T10:44:17.740Z,3.00
2023-02-05T10:46:51.629Z,3.30
2023-02-05T10:49:33.434Z,3.40
2023-02-05T10:52:00.143Z,3.40
2023-02-05T10:54:29.568Z,3.30
2023-02-05T10:56:58.495Z,3.20
2023-02-05T10:59:31.567Z,3.40
2023-02-05T11:02:03.835Z,3.30
2023-02-05T11:04:35.319Z,3.40
2023-02-05T11:07:06.320Z,3.40
2023-02-05T11:09:35.027Z,3.50
2023-02-05T11:12:14.970Z,3.40
2023-02-05T11:14:45.820Z,3.30
2023-02-05T11:17:21.779Z,3.40
2023-02-05T11:19:55.533Z,3.50
2023-02-05T11:22:36.567Z,3.60
2023-02-05T11:25:29.822Z,3.60
2023-02-05T11:27:59.699Z,3.70
2023-02-05T11:30:51.829Z,3.80
2023-02-05T11:33:24.663Z,3.80
2023-02-05T11:36:06.813Z,3.70
2023-02-05T11:38:45.868Z,3.70
2023-02-05T11:41:25.674Z,3.70
2023-02-05T11:43:53.813Z,3.80
2023-02-05T11:46:23.416Z,3.90
2023-02-05T11:49:04.935Z,3.90
2023-02-05T11:51:40.532Z,3.80
2023-02-05T11:54:19.586Z,4.00
2023-02-05T11:57:05.268Z,4.00
2023-02-05T11:59:33.581Z,3.90
2023-02-05T12:02:25.457Z,3.90
2023-02-05T12:04:58.461Z,4.00
2023-02-05T12:07:29.676Z,4.10
2023-02-05T12:09:59.841Z,4.20
2023-02-05T12:13:02.475Z,4.20
2023-02-05T12:15:58.964Z,4.20
2023-02-05T12:18:50.389Z,4.10
2023-02-05T12:21:45.789Z,4.10
2023-02-05T12:24:38.151Z,3.90
2023-02-05T12:27:16.868Z,3.90
2023-02-05T12:29:54.292Z,4.00
2023-02-05T12:32:49.005Z,4.00
2023-02-05T12:35:18.444Z,3.90
2023-02-05T12:37:58.476Z,3.80
2023-02-05T12:40:43.421Z,3.90
2023-02-05T12:43:28.127Z,3.90
2023-02-05T12:45:58.412Z,4.00
2023-02-05T12:48:38.945Z,4.10
2023-02-05T12:51:21.443Z,4.00
2023-02-05T12:54:09.921Z,4.00
2023-02-05T12:56:49.030Z,4.10
2023-02-05T12:59:18.777Z,4.20
2023-02-05T13:01:56.772Z,4.20
2023-02-05T13:04:32.588Z,4.40
2023-02-05T13:07:12.672Z,4.40
2023-02-05T13:09:50.908Z,4.20
2023-02-05T13:12:23.251Z,4.10
2023-02-05T13:15:01.482Z,4.10
2023-02-05T13:17:31.006Z,4.10
2023-02-05T13:20:44.458Z,4.10
2023-02-05T13:23:31.088Z,4.20
2023-02-05T13:26:08.706Z,4.10
2023-02-05T13:28:49.656Z,4.00
2023-02-05T13:31:33.192Z,4.20
2023-02-05T13:34:05.551Z,4.20
2023-02-05T13:37:12.832Z,4.20
2023-02-05T13:40:19.620Z,4.40
2023-02-05T13:42:54.473Z,4.30
2023-02-05T13:45:53.882Z,4.20
2023-02-05T13:48:34.552Z,4.30
2023-02-05T13:51:43.014Z,4.50
2023-02-05T13:54:34.465Z,4.30
2023-02-05T13:57:20.177Z,4.30
2023-02-05T13:59:53.326Z,4.30
2023-02-05T14:02:25.765Z,4.20
2023-02-05T14:04:54.697Z,4.30
2023-02-05T14:07:28.831Z,4.50
2023-02-05T14:10:00.424Z,4.50
2023-02-05T14:12:34.029Z,4.30
2023-02-05T14:15:16.139Z,4.40
2023-02-05T14:17:42.753Z,4.40
2023-02-05T14:20:24.773Z,4.40
2023-02-05T14:23:00.953Z,4.60
2023-02-05T14:25:37.920Z,4.50
2023-02-05T14:28:16.634Z,4.50
2023-02-05T14:31:00.218Z,4.70
2023-02-05T14:33:43.812Z,4.80
2023-02-05T14:36:21.179Z,4.80
2023-02-05T14:38:50.809Z,5.00
2023-02-05T14:41:27.476Z,5.00
2023-02-05T14:44:16.530Z,5.00
2023-02-05T14:47:08.540Z,5.00
2023-02-05T14:49:47.044Z,5.40
2023-02-05T14:52:37.312Z,5.30
2023-02-05T14:55:12.979Z,5.30
2023-02-05T14:57:49.336Z,5.40
2023-02-05T15:00:29.915Z,5.30
2023-02-05T15:03:05.731Z,5.00
2023-02-05T15:06:07.306Z,4.90
2023-02-05T15:08:45.241Z,4.90
2023-02-05T15:11:34.883Z,5.10
2023-02-05T15:14:20.077Z,5.00
2023-02-05T15:17:07.225Z,4.90
2023-02-05T15:19:42.760Z,4.90
2023-02-05T15:22:35.303Z,5.00
2023-02-05T15:25:18.323Z,5.20
2023-02-05T15:27:55.377Z,5.20
2023-02-05T15:30:28.452Z,5.20
2023-02-05T15:33:01.847Z,5.20
2023-02-05T15:35:33.502Z,5.20
2023-02-05T15:38:03.085Z,5.10
2023-02-05T15:40:32.526Z,5.20
2023-02-05T15:43:21.322Z,5.40
2023-02-05T15:46:00.404Z,5.50
2023-02-05T15:48:30.512Z,5.20
2023-02-05T15:51:02.167Z,5.20
2023-02-05T15:53:46.007Z,5.10
2023-02-05T15:56:17.096Z,5.20
2023-02-05T15:58:52.881Z,5.10
2023-02-05T16:01:32.099Z,5.20
2023-02-05T16:03:58.931Z,5.20
2023-02-05T16:06:28.219Z,5.20
2023-02-05T16:08:55.568Z,5.20
2023-02-05T16:11:33.506Z,5.10
2023-02-05T16:14:04.118Z,5.00
2023-02-05T16:16:32.587Z,4.90
2023-02-05T16:19:01.330Z,4.90
2023-02-05T16:30:19.051Z,4.60
2023-02-05T16:32:47.313Z,4.60
2023-02-05T16:35:36.994Z,4.40
2023-02-05T16:38:08.922Z,4.40
2023-02-05T16:40:40.737Z,4.10
2023-02-05T16:43:18.867Z,4.10
2023-02-05T16:46:14.763Z,4.00
2023-02-05T16:48:49.097Z,4.10
2023-02-05T16:51:32.385Z,4.10
2023-02-05T16:54:01.230Z,4.10
2023-02-05T16:56:35.748Z,3.90
2023-02-05T16:59:04.082Z,3.80
2023-02-05T17:01:44.028Z,3.70
2023-02-05T17:04:35.614Z,3.60
2023-02-05T17:07:06.914Z,3.70
2023-02-05T17:09:35.237Z,3.70
2023-02-05T17:12:23.124Z,3.60
2023-02-05T17:14:54.419Z,3.60
2023-02-05T17:17:21.928Z,3.30
2023-02-05T17:20:14.960Z,3.10
2023-02-05T17:23:05.105Z,3.20
2023-02-05T17:25:37.948Z,3.20
2023-02-05T17:28:06.292Z,3.10
2023-02-05T17:30:34.310Z,3.00
2023-02-05T17:33:05.137Z,3.00
2023-02-05T17:35:33.758Z,3.10
2023-02-05T17:38:00.464Z,3.20
2023-02-05T17:40:27.413Z,3.10
2023-02-05T17:42:54.186Z,3.00
2023-02-05T17:45:27.083Z,3.00
2023-02-05T17:47:54.044Z,3.20
2023-02-05T17:50:20.936Z,3.30
2023-02-05T17:52:47.831Z,3.30
2023-02-05T17:55:20.626Z,3.20
2023-02-05T17:57:47.495Z,3.30
2023-02-05T18:00:18.730Z,3.10
2023-02-05T18:02:45.574Z,2.90
2023-02-05T18:05:12.590Z,3.00
2023-02-05T18:07:51.755Z,3.10
2023-02-05T18:10:23.750Z,3.20
2023-02-05T18:12:51.084Z,3.10
2023-02-05T18:15:18.310Z,3.00
2023-02-05T18:17:45.458Z,2.90
2023-02-05T18:20:13.602Z,2.80
2023-02-05T18:22:40.627Z,2.80
2023-02-05T18:25:08.572Z,2.80
2023-02-05T18:27:35.292Z,2.70
2023-02-05T18:30:02.046Z,2.70
2023-02-05T18:32:29.068Z,2.70
2023-02-05T18:34:55.718Z,2.80
2023-02-05T18:37:22.632Z,2.80
2023-02-05T18:39:50.693Z,2.80
2023-02-05T18:42:17.737Z,2.80
2023-02-05T18:44:44.488Z,2.70
2023-02-05T18:47:11.366Z,2.70
2023-02-05T18:49:38.050Z,2.50
2023-02-05T18:52:06.165Z,2.50
2023-02-05T18:54:33.161Z,2.20
2023-02-05T18:56:59.895Z,2.20
2023-02-05T18:59:26.591Z,2.30
2023-02-05T19:01:53.851Z,2.30
2023-02-05T19:04:20.974Z,2.40
2023-02-05T19:06:53.616Z,2.40
2023-02-05T19:09:22.480Z,2.40
2023-02-05T19:11:50.104Z,2.50
2023-02-05T19:14:19.768Z,2.40
2023-02-05T19:16:47.646Z,2.30
2023-02-05T19:19:17.410Z,2.30
2023-02-05T19:21:48.834Z,2.50
2023-02-05T19:24:17.281Z,2.60
2023-02-05T19:26:44.681Z,2.70
2023-02-05T19:29:16.974Z,2.80
2023-02-05T19:31:44.987Z,3.00
2023-02-05T19:34:12.425Z,3.00
2023-02-05T19:36:39.561Z,2.90
2023-02-05T19:39:08.350Z,2.90
2023-02-05T19:41:37.235Z,2.90
2023-02-05T19:44:06.476Z,2.90
2023-02-05T19:46:41.487Z,3.00
2023-02-05T19:49:16.048Z,3.00
2023-02-05T19:51:47.605Z,3.10
2023-02-05T19:54:15.187Z,3.00
2023-02-05T19:56:45.040Z,2.90
2023-02-05T19:59:12.828Z,2.80
2023-02-05T20:01:43.620Z,2.70
2023-02-05T20:04:17.174Z,2.60
2023-02-05T20:06:46.236Z,2.70
2023-02-05T20:09:14.398Z,2.60
2023-02-05T20:11:44.091Z,2.30
2023-02-05T20:14:11.526Z,2.10
2023-02-05T20:16:42.365Z,1.90
2023-02-05T20:19:12.603Z,1.90
2023-02-05T20:21:39.818Z,2.00
2023-02-05T20:24:07.427Z,2.10
2023-02-05T20:26:35.132Z,2.20
2023-02-05T20:29:20.389Z,2.30
2023-02-05T20:31:52.012Z,2.20
2023-02-05T20:34:25.761Z,2.20
2023-02-05T20:36:55.067Z,2.30
2023-02-05T20:39:23.795Z,2.40
2023-02-05T20:41:51.856Z,2.40
2023-02-05T20:44:19.345Z,2.50
2023-02-05T20:46:46.858Z,2.60
2023-02-05T20:49:14.468Z,2.50
2023-02-05T20:51:41.870Z,2.40
2023-02-05T20:54:08.956Z,2.50
2023-02-05T20:56:35.846Z,2.30
2023-02-05T20:59:05.213Z,2.30
2023-02-05T21:01:33.832Z,2.40
2023-02-05T21:04:03.840Z,2.40
2023-02-05T21:06:34.754Z,2.50
2023-02-05T21:09:01.858Z,2.60
2023-02-05T21:11:29.569Z,2.50
2023-02-05T21:13:57.970Z,2.40
2023-02-05T21:16:26.446Z,2.40
2023-02-05T21:18:53.847Z,2.30
2023-02-05T21:21:28.435Z,2.30
2023-02-05T21:23:56.820Z,2.30
2023-02-05T21:26:35.799Z,2.40
2023-02-05T21:29:13.261Z,2.60
2023-02-05T21:31:44.885Z,2.70
2023-02-05T21:34:14.993Z,2.70
2023-02-05T21:36:41.790Z,2.60
2023-02-05T21:39:11.889Z,2.50
2023-02-05T21:41:39.573Z,2.50
2023-02-05T21:44:06.272Z,2.50
2023-02-05T21:46:32.973Z,2.60
2023-02-05T21:49:00.810Z,2.70
2023-02-05T21:51:34.503Z,2.70
2023-02-05T21:54:04.684Z,2.80
2023-02-05T21:56:40.571Z,2.80
2023-02-05T21:59:08.315Z,3.10
2023-02-05T22:01:36.242Z,3.20
2023-02-05T22:04:08.887Z,3.10
2023-02-05T22:06:36.347Z,3.20
2023-02-05T22:09:06.600Z,3.10
2023-02-05T22:11:33.863Z,3.10
2023-02-05T22:14:00.636Z,3.10
2023-02-05T22:16:30.266Z,3.10
2023-02-05T22:18:58.133Z,3.20
2023-02-05T22:21:30.842Z,3.10
2023-02-05T22:23:59.308Z,3.00
2023-02-05T22:26:29.093Z,2.90
2023-02-05T22:28:59.046Z,2.90
2023-02-05T22:31:26.887Z,3.00
2023-02-05T22:33:53.916Z,2.90
2023-02-05T22:36:23.608Z,2.90
2023-02-05T22:38:51.405Z,2.90
2023-02-05T22:41:24.075Z,2.80
2023-02-05T22:43:51.462Z,2.90
2023-02-05T22:46:25.408Z,3.00
2023-02-05T22:48:53.443Z,3.00
2023-02-05T22:51:24.000Z,3.10
2023-02-05T22:53:52.680Z,3.20
2023-02-05T22:56:19.509Z,3.20
2023-02-05T22:58:47.498Z,3.20
2023-02-05T23:01:23.375Z,3.20
2023-02-05T23:03:51.821Z,3.20
2023-02-05T23:06:30.167Z,3.20
2023-02-05T23:09:02.511Z,3.20
2023-02-05T23:11:31.166Z,3.20
2023-02-05T23:13:59.336Z,3.20
2023-02-05T23:16:37.940Z,3.30
2023-02-05T23:19:08.887Z,3.30
2023-02-05T23:21:37.112Z,3.30
2023-02-05T23:24:04.746Z,3.20
2023-02-05T23:26:34.488Z,3.10
2023-02-05T23:29:01.296Z,3.20
2023-02-05T23:31:28.628Z,3.20
2023-02-05T23:33:55.432Z,3.20
2023-02-05T23:36:22.518Z,3.30
2023-02-05T23:38:49.628Z,3.20
2023-02-05T23:41:35.143Z,3.10
2023-02-05T23:44:11.021Z,3.00
2023-02-05T23:46:38.535Z,3.10
2023-02-05T23:49:05.781Z,3.20
2023-02-05T23:51:33.165Z,3.10
2023-02-05T23:54:00.162Z,3.20
2023-02-05T23:56:27.053Z,3.20
2023-02-05T23:58:53.718Z,3.10
